createdAt,value
2019-05-23T00:00:58.404Z,9.40
2019-05-23T00:03:42.612Z,9.30
2019-05-23T00:06:19.844Z,9.30
2019-05-23T00:08:50.178Z,9.30
2019-05-23T00:11:29.926Z,9.20
2019-05-23T00:14:02.026Z,9.20
2019-05-23T00:16:32.408Z,9.20
2019-05-23T00:19:02.651Z,9.10
2019-05-23T00:21:33.488Z,9.10
2019-05-23T00:24:04.516Z,9.00
2019-05-23T00:26:36.520Z,9.00
2019-05-23T00:29:10.445Z,9.00
2019-05-23T00:31:41.623Z,8.30
2019-05-23T00:34:12.822Z,8.80
2019-05-23T00:36:43.356Z,8.80
2019-05-23T00:39:14.626Z,8.70
2019-05-23T00:41:45.602Z,8.70
2019-05-23T00:44:16.293Z,8.60
2019-05-23T00:46:46.988Z,8.50
2019-05-23T00:49:18.958Z,8.50
2019-05-23T00:51:49.143Z,8.50
2019-05-23T00:54:19.881Z,8.40
2019-05-23T00:56:50.734Z,8.40
2019-05-23T00:59:27.010Z,8.30
2019-05-23T01:01:52.931Z,8.30
2019-05-23T01:04:22.970Z,8.20
2019-05-23T01:06:54.424Z,8.20
2019-05-23T01:09:26.546Z,8.20
2019-05-23T01:11:57.196Z,8.10
2019-05-23T01:14:27.775Z,8.10
2019-05-23T01:16:58.407Z,8.10
2019-05-23T01:19:28.633Z,8.00
2019-05-23T01:22:02.421Z,8.00
2019-05-23T01:24:40.133Z,8.00
2019-05-23T01:27:10.676Z,8.00
2019-05-23T01:29:42.731Z,8.00
2019-05-23T01:32:15.064Z,8.00
2019-05-23T01:34:45.634Z,8.00
2019-05-23T01:37:16.364Z,7.90
2019-05-23T01:39:45.789Z,7.90
2019-05-23T01:42:17.037Z,7.80
2019-05-23T01:44:47.854Z,7.80
2019-05-23T01:47:18.664Z,7.80
2019-05-23T01:49:49.976Z,7.70
2019-05-23T01:52:20.130Z,7.70
2019-05-23T01:54:49.293Z,7.60
2019-05-23T01:57:20.316Z,7.50
2019-05-23T02:00:06.157Z,7.50
2019-05-23T02:02:23.390Z,7.50
2019-05-23T02:04:53.677Z,7.40
2019-05-23T02:07:24.073Z,7.40
2019-05-23T02:09:53.773Z,7.30
2019-05-23T02:12:24.174Z,7.30
2019-05-23T02:14:55.289Z,7.30
2019-05-23T02:17:25.798Z,7.30
2019-05-23T02:19:55.158Z,7.30
2019-05-23T02:22:26.349Z,7.30
2019-05-23T02:24:57.030Z,7.30
2019-05-23T02:27:27.218Z,7.20
2019-05-23T02:29:57.703Z,7.20
2019-05-23T02:32:29.305Z,7.10
2019-05-23T02:35:00.840Z,7.10
2019-05-23T02:37:38.671Z,7.10
2019-05-23T02:40:14.238Z,7.10
2019-05-23T02:42:46.015Z,7.00
2019-05-23T02:45:20.220Z,7.00
2019-05-23T02:47:49.797Z,6.90
2019-05-23T02:50:31.780Z,6.90
2019-05-23T02:53:03.598Z,6.90
2019-05-23T02:55:36.433Z,6.80
2019-05-23T02:58:21.342Z,6.80
2019-05-23T03:01:00.589Z,6.80
2019-05-23T03:03:32.633Z,6.70
2019-05-23T03:06:02.840Z,6.70
2019-05-23T03:08:32.761Z,6.70
2019-05-23T03:11:20.161Z,6.60
2019-05-23T03:13:52.481Z,6.60
2019-05-23T03:16:24.913Z,6.50
2019-05-23T03:18:58.422Z,6.50
2019-05-23T03:21:29.061Z,6.50
2019-05-23T03:24:00.357Z,6.50
2019-05-23T03:26:33.556Z,6.50
2019-05-23T03:29:04.227Z,6.50
2019-05-23T03:31:39.454Z,6.50
2019-05-23T03:34:10.860Z,6.40
2019-05-23T03:36:41.234Z,6.40
2019-05-23T03:39:12.296Z,6.40
2019-05-23T03:41:41.626Z,6.40
2019-05-23T03:44:12.192Z,6.40
2019-05-23T03:46:43.421Z,6.30
2019-05-23T03:49:15.291Z,6.30
2019-05-23T03:51:45.317Z,6.30
2019-05-23T03:54:15.570Z,6.30
2019-05-23T03:56:47.209Z,6.30
2019-05-23T03:59:19.178Z,6.30
2019-05-23T04:01:50.052Z,6.30
2019-05-23T04:04:20.935Z,6.30
2019-05-23T04:06:51.585Z,6.30
2019-05-23T04:09:22.728Z,6.40
2019-05-23T04:11:52.573Z,6.40
2019-05-23T04:14:23.187Z,6.50
2019-05-23T04:16:52.579Z,6.50
2019-05-23T04:19:21.752Z,6.50
2019-05-23T04:21:51.906Z,6.50
2019-05-23T04:24:22.225Z,6.50
2019-05-23T04:26:52.036Z,6.60
2019-05-23T04:29:21.892Z,6.60
2019-05-23T04:32:07.117Z,6.70
2019-05-23T04:34:23.742Z,6.80
2019-05-23T04:36:53.491Z,6.90
2019-05-23T04:39:23.878Z,7.00
2019-05-23T04:41:53.562Z,7.10
2019-05-23T04:44:23.547Z,7.10
2019-05-23T04:46:54.620Z,7.30
2019-05-23T04:49:25.011Z,7.30
2019-05-23T04:51:55.339Z,7.40
2019-05-23T04:54:25.710Z,7.50
2019-05-23T04:56:55.464Z,7.60
2019-05-23T04:59:25.663Z,7.60
2019-05-23T05:02:00.217Z,7.70
2019-05-23T05:04:30.558Z,7.80
2019-05-23T05:07:00.245Z,7.90
2019-05-23T05:09:32.289Z,8.00
2019-05-23T05:12:02.443Z,8.10
2019-05-23T05:14:33.557Z,8.20
2019-05-23T05:17:03.613Z,8.40
2019-05-23T05:19:34.352Z,8.50
2019-05-23T05:22:03.566Z,8.70
2019-05-23T05:24:32.790Z,8.90
2019-05-23T05:27:02.264Z,9.10
2019-05-23T05:29:32.300Z,9.40
2019-05-23T05:32:03.983Z,9.70
2019-05-23T05:34:33.959Z,10.00
2019-05-23T05:37:04.709Z,10.30
2019-05-23T18:38:37.242Z,21.50
2019-05-23T18:41:09.117Z,21.30
